createdAt,value
2023-12-04T00:02:31.160Z,64.60
2023-12-04T00:07:33.868Z,64.80
2023-12-04T00:12:36.585Z,64.80
2023-12-04T00:17:41.545Z,64.90
2023-12-04T00:22:44.131Z,65.00
2023-12-04T00:27:46.592Z,65.20
2023-12-04T00:32:49.560Z,65.00
2023-12-04T00:37:52.055Z,65.20
2023-12-04T00:42:54.604Z,65.10
2023-12-04T00:47:57.120Z,65.20
2023-12-04T00:52:59.665Z,65.10
2023-12-04T00:58:02.194Z,65.20
2023-12-04T01:03:04.969Z,64.70
2023-12-04T01:08:07.559Z,65.20
2023-12-04T01:13:10.337Z,64.50
2023-12-04T01:18:13.093Z,64.60
2023-12-04T01:23:15.614Z,64.70
2023-12-04T01:28:18.187Z,64.70
2023-12-04T01:33:20.771Z,64.30
2023-12-04T01:38:23.301Z,64.70
2023-12-04T01:43:25.889Z,64.70
2023-12-04T01:48:29.915Z,65.60
2023-12-04T01:53:33.292Z,65.30
2023-12-04T01:58:35.997Z,65.40
2023-12-04T02:03:38.823Z,65.20
2023-12-04T02:08:42.392Z,64.70
2023-12-04T02:13:45.057Z,64.50
2023-12-04T02:18:47.835Z,64.40
2023-12-04T02:23:52.242Z,64.90
2023-12-04T02:28:59.970Z,64.70
2023-12-04T02:34:07.698Z,65.40
2023-12-04T02:39:10.417Z,65.20
2023-12-04T02:44:12.986Z,64.70
2023-12-04T02:49:15.472Z,65.00
2023-12-04T02:54:17.995Z,65.30
2023-12-04T02:59:20.613Z,65.30
2023-12-04T03:04:23.376Z,65.40
2023-12-04T03:09:47.523Z,65.10
2023-12-04T03:14:48.547Z,65.20
2023-12-04T03:19:51.434Z,65.00
2023-12-04T03:24:54.052Z,64.90
2023-12-04T03:29:56.636Z,64.60
2023-12-04T03:34:59.256Z,64.80
2023-12-04T03:40:01.864Z,64.80
2023-12-04T03:45:05.083Z,65.00
2023-12-04T03:50:07.910Z,64.90
2023-12-04T03:55:10.694Z,65.00
2023-12-04T04:00:13.801Z,65.60
2023-12-04T04:05:16.913Z,65.30
2023-12-04T04:10:20.126Z,65.20
2023-12-04T04:15:22.703Z,65.20
2023-12-04T04:20:25.281Z,65.40
2023-12-04T04:25:28.259Z,65.40
2023-12-04T04:30:30.796Z,65.40
2023-12-04T04:35:33.314Z,65.70
2023-12-04T04:40:36.244Z,65.70
2023-12-04T04:45:38.973Z,65.60
2023-12-04T04:50:41.557Z,65.60
2023-12-04T04:55:47.890Z,66.00
2023-12-04T05:00:51.911Z,66.10
2023-12-04T05:05:54.482Z,66.30
2023-12-04T05:10:57.380Z,66.60
2023-12-04T05:15:59.858Z,66.70
2023-12-04T05:21:02.601Z,66.60
2023-12-04T05:26:08.117Z,66.90
2023-12-04T05:31:10.776Z,66.90
2023-12-04T05:36:13.376Z,66.80
2023-12-04T05:41:15.869Z,67.20
2023-12-04T05:46:18.445Z,67.50
2023-12-04T05:51:21.312Z,67.60
2023-12-04T05:56:23.802Z,67.50
2023-12-04T06:01:26.498Z,67.80
2023-12-04T06:06:28.912Z,67.50
2023-12-04T06:11:31.491Z,68.10
2023-12-04T06:16:33.967Z,67.70
2023-12-04T06:21:36.595Z,68.70
2023-12-04T06:26:43.743Z,67.90
2023-12-04T06:31:46.681Z,68.20
2023-12-04T06:36:50.410Z,68.40
2023-12-04T06:41:53.335Z,67.70
2023-12-04T06:47:01.007Z,67.60
2023-12-04T06:52:03.991Z,67.90
2023-12-04T06:57:06.636Z,68.30
2023-12-04T07:02:09.176Z,68.40
2023-12-04T07:07:13.512Z,67.80
2023-12-04T07:12:16.383Z,68.60
2023-12-04T07:17:19.139Z,67.80
2023-12-04T07:22:22.054Z,68.30
2023-12-04T07:27:24.701Z,68.20
2023-12-04T07:32:27.251Z,68.70
2023-12-04T07:37:31.478Z,68.50
2023-12-04T07:42:34.138Z,69.00
2023-12-04T07:47:36.848Z,69.30
2023-12-04T07:52:39.612Z,68.60
2023-12-04T07:57:42.155Z,68.70
2023-12-04T08:02:46.822Z,68.90
2023-12-04T08:07:49.302Z,68.60
2023-12-04T08:12:52.284Z,68.80
2023-12-04T08:17:54.983Z,68.70
2023-12-04T08:22:57.600Z,68.90
2023-12-04T08:28:01.329Z,69.40
2023-12-04T08:33:04.328Z,69.50
2023-12-04T08:38:07.048Z,69.40
2023-12-04T08:43:09.739Z,69.70
2023-12-04T08:48:12.331Z,69.70
2023-12-04T08:53:15.109Z,69.50
2023-12-04T08:58:17.530Z,69.70
2023-12-04T09:03:26.590Z,69.80
2023-12-04T09:08:38.275Z,69.50
2023-12-04T09:13:45.992Z,69.80
2023-12-04T09:18:48.695Z,70.40
2023-12-04T09:23:51.674Z,70.30
2023-12-04T09:28:54.342Z,69.60
2023-12-04T09:33:57.141Z,70.00
2023-12-04T09:38:59.674Z,69.80
2023-12-04T09:44:03.259Z,69.80
2023-12-04T09:49:06.547Z,69.90
2023-12-04T09:54:10.307Z,69.90
2023-12-04T09:59:15.843Z,69.30
2023-12-04T10:04:18.526Z,69.30
2023-12-04T10:09:23.724Z,69.40
2023-12-04T10:14:26.828Z,69.70
2023-12-04T10:19:31.302Z,69.70
2023-12-04T10:29:48.907Z,70.10
2023-12-04T10:34:51.879Z,69.20
2023-12-04T10:40:23.461Z,69.40
2023-12-04T10:45:26.139Z,69.80
2023-12-04T10:50:30.269Z,69.60
2023-12-04T10:55:33.432Z,69.90
2023-12-04T11:00:45.343Z,70.00
2023-12-04T11:05:54.437Z,68.90
2023-12-04T11:16:34.243Z,69.50
2023-12-04T11:21:37.903Z,69.40
2023-12-04T11:26:42.548Z,69.50
2023-12-04T11:31:45.029Z,69.30
2023-12-04T11:36:47.515Z,68.40
2023-12-04T11:41:50.941Z,68.80
2023-12-04T11:47:09.701Z,68.60
2023-12-04T11:52:12.352Z,68.70
2023-12-04T12:02:24.938Z,68.70
2023-12-04T12:07:28.686Z,68.50
2023-12-04T12:12:33.483Z,69.10
2023-12-04T12:17:36.265Z,68.80
2023-12-04T12:22:42.514Z,68.10
2023-12-04T12:27:46.110Z,68.50
2023-12-04T12:32:48.695Z,68.90
2023-12-04T12:37:54.887Z,68.10
2023-12-04T12:43:13.435Z,68.60
2023-12-04T12:48:18.259Z,68.30
2023-12-04T12:53:20.836Z,67.80
2023-12-04T12:58:23.412Z,68.40
2023-12-04T13:03:26.022Z,67.80
2023-12-04T13:08:28.515Z,68.80
2023-12-04T13:13:31.189Z,67.70
2023-12-04T13:46:24.325Z,69.80
2023-12-04T13:51:27.888Z,69.60
2023-12-04T13:56:45.608Z,68.50
2023-12-04T14:01:48.739Z,68.40
2023-12-04T14:06:51.788Z,67.80
2023-12-04T14:11:55.148Z,67.90
2023-12-04T14:16:57.619Z,67.50
2023-12-04T14:22:00.016Z,67.20
2023-12-04T14:27:02.815Z,66.60
2023-12-04T14:32:05.613Z,66.80
2023-12-04T14:37:09.123Z,66.90
2023-12-04T14:42:11.757Z,66.80
2023-12-04T14:47:14.165Z,67.30
2023-12-04T14:52:16.838Z,67.50
2023-12-04T15:02:50.739Z,67.20
2023-12-04T15:08:13.100Z,67.10
2023-12-04T15:13:35.323Z,67.10
2023-12-04T15:18:45.119Z,67.40
2023-12-04T15:23:47.807Z,67.30
2023-12-04T15:28:51.260Z,66.90
2023-12-04T15:33:53.941Z,66.70
2023-12-04T15:38:56.901Z,66.70
2023-12-04T15:43:59.327Z,66.60
2023-12-04T15:49:01.940Z,66.90
2023-12-04T15:54:05.416Z,66.90
2023-12-04T15:59:08.621Z,66.80
2023-12-04T16:04:11.158Z,66.70
2023-12-04T16:09:14.988Z,66.60
2023-12-04T16:14:17.482Z,66.40
2023-12-04T16:19:19.998Z,66.30
2023-12-04T16:24:24.632Z,66.10
2023-12-04T16:29:31.752Z,65.90
2023-12-04T16:34:34.475Z,66.30
2023-12-04T16:39:37.043Z,66.00
2023-12-04T16:44:39.601Z,66.10
2023-12-04T16:49:42.568Z,65.80
2023-12-04T16:54:47.919Z,65.70
2023-12-04T16:59:52.373Z,65.90
2023-12-04T17:04:56.262Z,65.90
2023-12-04T17:09:59.535Z,66.00
2023-12-04T17:15:02.048Z,66.00
2023-12-04T17:20:05.031Z,66.10
2023-12-04T17:25:09.505Z,66.20
2023-12-04T17:41:40.058Z,65.90
2023-12-04T17:46:42.541Z,65.50
2023-12-04T17:51:45.396Z,65.40
2023-12-04T17:56:48.161Z,64.80
2023-12-04T18:01:50.749Z,65.60
2023-12-04T18:06:53.301Z,65.20
2023-12-04T18:11:55.869Z,65.90
2023-12-04T18:21:55.161Z,65.20
2023-12-04T18:26:58.110Z,65.80
2023-12-04T18:32:00.835Z,65.80
2023-12-04T18:37:14.745Z,66.10
2023-12-04T18:43:20.056Z,65.30
2023-12-04T18:48:27.361Z,65.60
2023-12-04T18:53:30.388Z,65.50
2023-12-04T18:58:33.180Z,65.30
2023-12-04T19:03:35.782Z,65.20
2023-12-04T19:08:38.296Z,65.30
2023-12-04T19:13:40.738Z,65.40
2023-12-04T19:18:43.410Z,65.10
2023-12-04T19:23:46.061Z,65.40
2023-12-04T19:28:49.175Z,65.30
2023-12-04T19:33:51.906Z,65.80
2023-12-04T19:41:42.797Z,65.10
2023-12-04T19:46:45.326Z,65.50
2023-12-04T19:51:48.054Z,65.40
2023-12-04T19:56:50.441Z,65.30
2023-12-04T20:01:53.016Z,65.10
2023-12-04T20:06:56.058Z,65.00
2023-12-04T20:11:58.595Z,65.10
2023-12-04T20:17:01.068Z,64.90
2023-12-04T20:22:03.748Z,65.00
2023-12-04T20:27:06.413Z,64.80
2023-12-04T20:32:09.796Z,65.10
2023-12-04T20:37:12.592Z,64.80
2023-12-04T20:42:18.650Z,65.70
2023-12-04T20:47:21.277Z,65.30
2023-12-04T20:52:23.880Z,65.20
2023-12-04T20:57:26.458Z,65.60
2023-12-04T21:02:29.074Z,65.30
2023-12-04T21:07:32.041Z,65.40
2023-12-04T21:12:34.686Z,65.40
2023-12-04T21:17:37.805Z,65.80
2023-12-04T21:22:41.234Z,65.90
2023-12-04T21:27:44.444Z,65.80
2023-12-04T21:32:47.027Z,66.20
2023-12-04T21:37:49.625Z,65.70
2023-12-04T21:42:52.152Z,66.10
2023-12-04T21:47:54.595Z,66.00
2023-12-04T21:52:57.695Z,65.70
2023-12-04T21:58:00.832Z,65.60
2023-12-04T22:03:23.714Z,65.70
2023-12-04T22:08:26.511Z,65.90
2023-12-04T22:13:28.913Z,65.50
2023-12-04T22:18:33.626Z,65.80
2023-12-04T22:23:36.835Z,65.80
2023-12-04T22:28:39.464Z,65.50
2023-12-04T22:33:42.098Z,65.70
2023-12-04T22:38:45.279Z,66.60
2023-12-04T22:43:47.928Z,66.00
2023-12-04T22:48:51.290Z,65.70
2023-12-04T22:53:54.045Z,65.90
2023-12-04T22:58:56.599Z,65.80
2023-12-04T23:03:59.501Z,66.00
2023-12-04T23:09:02.065Z,66.20
2023-12-04T23:14:04.804Z,65.50
2023-12-04T23:19:07.525Z,66.10
2023-12-04T23:24:10.179Z,65.80
2023-12-04T23:29:12.638Z,66.10
2023-12-04T23:34:15.368Z,66.10
2023-12-04T23:39:18.046Z,66.30
2023-12-04T23:44:20.520Z,66.70
2023-12-04T23:49:23.495Z,66.10
2023-12-04T23:54:26.207Z,66.10
2023-12-04T23:59:28.703Z,66.20
